If you wish to contribute or participate in the discussions about articles you are invited to join SKYbrary as a registered user

 Actions

Cam Ranh International Airport

From SKYbrary Wiki

VVCR
Airport
ICAO: VVCR – IATA: CAM
Summary
Name Cam Ranh International Airport
Region Asia and Pacific
Territory Vietnam VN.gif
Location Cam Rant Bay, Khanh Hoa
Serving Nha Trang
Elevation 12.192 m
40 ft12.192 m
Coordinates 11° 59' 53.02" N, 109° 13' 9.98" E
Runways
Designator Length Width Surface ROPS
2/20 3048 m10,000 ft
46 m150.919 ft
CON yes/yes


METAR
Observation VVCR 162130Z 31002KT 9999 SCT013 SCT050 26/25 Q1008 NOSIG
Station Cam Ranh International Airport
Date/Time 16 September 2019 21:30:00
Wind direction 310°
Wind speed 02 kts
Lowest cloud amount scattered clouds
Temperature 26°C
Dew point 25°C
Humidity 94%
QNH 1008 hPa
Weather condition n/a

Cam Ranh International Airport is located on Cam Ranh Bay in Cam Ranh, a town in Khánh Hòa Province in Vietnam. It serves the city of Nha Trang, which is 30 km16.199 nm
30,000 m
98,425.197 ft
from the airport.

Climatology

Tropical savannah climate (Köppen climate classification Aw)

Maps

Terrain

Loading map...

Airport Layout

Loading map...


Accidents & Serious Incidents at or in vicinity of VVCR

None on SKYbrary